Time;durP1;ratioP1;P1;durP2;ratioP2;P2;SDS_P1;SDS_P2;PMS_P1;PMS_P2;Temp;Humidity;BMP_temperature;BMP_pressure;BME280_temperature;BME280_humidity;BME280_pressure;Samples;Min_cycle;Max_cycle;Signal;HPM_P1;HPM_P2
2023/10/22 00:00:47;;;;;;;4.78;1.50;;;12.30;99.90;;;;;;4978842;28;20027;-84
2023/10/22 00:03:12;;;;;;;2.15;0.95;;;12.20;99.90;;;;;;4977738;28;20030;-86
2023/10/22 00:05:38;;;;;;;3.78;1.48;;;12.10;99.90;;;;;;4978107;28;20061;-83
2023/10/22 00:08:04;;;;;;;5.07;1.17;;;12.60;99.90;;;;;;4975138;28;20077;-85
2023/10/22 00:10:29;;;;;;;6.18;1.10;;;12.20;99.90;;;;;;4977983;28;20475;-84
2023/10/22 00:12:55;;;;;;;3.35;0.90;;;12.10;99.90;;;;;;4979501;28;20039;-84
2023/10/22 00:15:21;;;;;;;7.88;1.20;;;;;;;;;;4979283;28;20027;-86
2023/10/22 00:17:47;;;;;;;3.88;0.85;;;12.20;99.90;;;;;;4970381;28;20125;-86
2023/10/22 00:20:12;;;;;;;4.28;1.00;;;12.10;99.90;;;;;;4974670;28;20113;-85
2023/10/22 00:22:38;;;;;;;4.18;0.98;;;12.20;99.90;;;;;;4974918;28;20038;-85
2023/10/22 00:25:06;;;;;;;2.20;0.90;;;12.20;99.90;;;;;;4971184;28;20030;-84
2023/10/22 00:27:32;;;;;;;5.40;1.00;;;12.20;99.90;;;;;;4974674;28;20280;-85
2023/10/22 00:29:58;;;;;;;7.65;1.25;;;12.10;99.90;;;;;;4978666;28;20037;-85
2023/10/22 00:32:24;;;;;;;5.53;1.17;;;12.20;99.90;;;;;;4976707;28;20391;-85
2023/10/22 00:34:50;;;;;;;6.28;1.02;;;12.20;99.90;;;;;;4978550;28;20023;-83
2023/10/22 00:37:15;;;;;;;4.35;1.10;;;12.20;99.90;;;;;;4978073;28;20021;-84
2023/10/22 00:39:41;;;;;;;5.35;1.05;;;12.20;99.90;;;;;;4974709;28;20030;-85
2023/10/22 00:42:07;;;;;;;6.18;1.02;;;12.40;99.90;;;;;;4975920;28;20023;-83
2023/10/22 00:44:34;;;;;;;3.63;1.10;;;12.20;99.90;;;;;;4979263;28;20034;-85
2023/10/22 00:47:00;;;;;;;3.67;0.80;;;12.20;99.90;;;;;;4977147;28;20070;-86
2023/10/22 00:49:26;;;;;;;2.15;0.90;;;12.20;99.90;;;;;;4977632;28;20054;-86
2023/10/22 00:51:52;;;;;;;5.70;1.58;;;12.20;99.90;;;;;;4976960;28;20388;-86
2023/10/22 00:54:19;;;;;;;6.63;1.08;;;12.10;99.90;;;;;;4977273;28;20034;-81
2023/10/22 00:56:46;;;;;;;6.18;1.20;;;12.10;99.90;;;;;;4977941;28;20026;-87
2023/10/22 00:59:11;;;;;;;3.17;1.00;;;12.00;99.90;;;;;;4979558;28;20058;-84
2023/10/22 01:01:37;;;;;;;4.40;1.23;;;12.00;99.90;;;;;;4974742;28;20027;-85
2023/10/22 01:04:03;;;;;;;4.22;1.05;;;12.00;99.90;;;;;;4976550;28;20514;-86
2023/10/22 01:06:30;;;;;;;5.10;1.30;;;12.00;99.90;;;;;;4977107;28;20093;-84
2023/10/22 01:08:57;;;;;;;3.65;1.10;;;11.90;99.90;;;;;;4979436;28;20442;-86
2023/10/22 01:11:22;;;;;;;8.90;1.30;;;12.40;99.90;;;;;;4975438;28;20018;-86
2023/10/22 01:13:48;;;;;;;8.70;1.20;;;12.20;99.90;;;;;;4975123;28;20047;-86
2023/10/22 01:16:14;;;;;;;3.88;0.95;;;12.20;99.90;;;;;;4975704;28;20023;-85
2023/10/22 01:18:39;;;;;;;6.88;1.70;;;11.90;99.90;;;;;;4976458;28;20545;-85
2023/10/22 01:21:05;;;;;;;3.65;1.10;;;11.90;99.90;;;;;;4973617;28;20500;-86
2023/10/22 01:23:36;;;;;;;3.45;1.05;;;11.80;99.90;;;;;;4975537;28;20038;-86
2023/10/22 01:26:03;;;;;;;4.70;0.93;;;11.80;99.90;;;;;;4972956;28;20042;-85
2023/10/22 01:28:29;;;;;;;3.30;0.80;;;11.80;99.90;;;;;;4962911;28;20387;-80
2023/10/22 01:30:58;;;;;;;4.03;0.90;;;11.90;99.90;;;;;;4965163;28;20030;-84
2023/10/22 01:33:23;;;;;;;4.00;0.82;;;11.80;99.90;;;;;;4964128;28;20561;-84
2023/10/22 01:35:49;;;;;;;5.45;0.90;;;11.80;99.90;;;;;;4970185;28;20039;-83
2023/10/22 01:38:14;;;;;;;3.30;1.58;;;11.80;99.90;;;;;;4962249;28;20427;-81
2023/10/22 01:40:40;;;;;;;6.45;1.08;;;11.90;99.90;;;;;;4958947;28;20475;-81
2023/10/22 01:43:06;;;;;;;4.03;0.90;;;11.80;99.90;;;;;;4965403;28;20022;-82
2023/10/22 01:45:31;;;;;;;4.47;1.00;;;11.80;99.90;;;;;;4976930;28;20038;-83
2023/10/22 01:47:57;;;;;;;4.13;0.90;;;;;;;;;;4964158;28;20034;-83
2023/10/22 01:50:23;;;;;;;4.85;1.10;;;;;;;;;;4982548;28;20042;-85
2023/10/22 01:52:49;;;;;;;9.60;1.50;;;11.70;99.90;;;;;;4971294;28;20121;-82
2023/10/22 01:55:15;;;;;;;3.30;0.90;;;;;;;;;;4964673;28;21540;-82
2023/10/22 01:57:41;;;;;;;5.40;1.58;;;11.60;99.90;;;;;;4969033;28;20078;-80
2023/10/22 02:00:10;;;;;;;2.55;0.65;;;;;;;;;;4971945;28;20027;-84
2023/10/22 02:02:36;;;;;;;3.10;1.05;;;11.60;99.90;;;;;;4974031;28;20027;-82
2023/10/22 02:05:03;;;;;;;5.85;1.02;;;11.60;99.90;;;;;;4971426;28;20045;-82
2023/10/22 02:07:29;;;;;;;5.25;0.90;;;11.60;99.90;;;;;;4974525;28;20027;-83
2023/10/22 02:09:55;;;;;;;3.65;1.08;;;11.60;99.90;;;;;;4972571;28;20030;-84
2023/10/22 02:12:30;;;;;;;7.65;1.10;;;11.50;99.90;;;;;;4973550;28;20090;-84
2023/10/22 02:14:56;;;;;;;4.10;0.90;;;11.40;99.90;;;;;;4965280;28;20031;-84
2023/10/22 02:17:22;;;;;;;3.03;0.93;;;11.30;99.90;;;;;;4970131;28;20813;-85
2023/10/22 02:19:47;;;;;;;5.05;1.38;;;11.40;99.90;;;;;;4961440;28;20145;-81
2023/10/22 02:22:15;;;;;;;7.22;2.28;;;11.40;99.90;;;;;;4971820;28;20105;-82
2023/10/22 02:24:41;;;;;;;2.78;1.00;;;11.50;99.90;;;;;;4960181;28;20035;-85
2023/10/22 02:27:07;;;;;;;2.70;0.90;;;11.90;99.90;;;;;;4968512;28;20038;-85
2023/10/22 02:29:33;;;;;;;4.05;0.95;;;11.40;99.90;;;;;;4970082;28;20038;-86
2023/10/22 02:31:59;;;;;;;3.92;0.98;;;11.40;99.90;;;;;;4969056;28;20031;-82
2023/10/22 02:34:25;;;;;;;3.60;0.82;;;11.40;99.90;;;;;;4967904;28;20039;-85
2023/10/22 02:36:51;;;;;;;4.45;1.20;;;11.50;99.90;;;;;;4969869;28;20033;-80
2023/10/22 02:39:21;;;;;;;2.20;0.63;;;11.50;99.90;;;;;;4967403;28;20035;-82
2023/10/22 02:41:46;;;;;;;6.97;1.20;;;12.00;99.90;;;;;;4961542;28;20660;-81
2023/10/22 02:44:12;;;;;;;7.55;1.10;;;11.40;99.90;;;;;;4967196;28;20310;-83
2023/10/22 02:46:37;;;;;;;5.15;1.33;;;11.40;99.90;;;;;;4966560;28;20045;-86
2023/10/22 02:49:03;;;;;;;5.45;1.10;;;11.40;99.90;;;;;;4964186;28;20106;-82
2023/10/22 02:51:29;;;;;;;4.60;1.20;;;11.30;99.90;;;;;;4967612;28;20038;-84
2023/10/22 02:53:55;;;;;;;6.80;1.30;;;11.30;99.90;;;;;;4962231;28;20047;-82
2023/10/22 02:56:21;;;;;;;6.05;0.90;;;11.20;99.90;;;;;;4968088;28;20034;-85
2023/10/22 02:58:46;;;;;;;4.45;1.15;;;12.60;99.90;;;;;;4963291;28;20022;-86
2023/10/22 03:01:12;;;;;;;5.25;0.85;;;11.70;99.90;;;;;;4970696;28;20038;-85
2023/10/22 03:03:39;;;;;;;8.50;1.10;;;11.40;99.90;;;;;;4966862;28;20830;-84
2023/10/22 03:06:11;;;;;;;4.88;1.00;;;11.30;99.90;;;;;;4964900;28;20022;-85
2023/10/22 03:08:39;;;;;;;3.60;1.10;;;11.40;99.90;;;;;;4959069;28;20037;-79
2023/10/22 03:11:05;;;;;;;6.53;1.10;;;11.40;99.90;;;;;;4964066;28;20408;-82
2023/10/22 03:13:32;;;;;;;4.68;1.08;;;11.30;99.90;;;;;;4967362;28;20023;-87
2023/10/22 03:16:06;;;;;;;5.72;1.35;;;12.80;99.90;;;;;;4969944;28;20046;-84
2023/10/22 03:18:32;;;;;;;7.18;1.20;;;11.30;99.90;;;;;;4966093;28;20058;-82
2023/10/22 03:20:58;;;;;;;5.63;1.10;;;11.30;99.90;;;;;;4959627;28;20471;-85
2023/10/22 03:23:23;;;;;;;3.25;0.95;;;13.00;99.90;;;;;;4974181;28;20038;-83
2023/10/22 03:25:50;;;;;;;6.25;1.42;;;12.80;99.90;;;;;;4970998;28;20034;-85
2023/10/22 03:28:16;;;;;;;3.92;0.88;;;12.40;99.90;;;;;;4975680;28;20051;-86
2023/10/22 03:30:41;;;;;;;4.97;1.10;;;12.50;99.90;;;;;;4966179;28;20034;-80
2023/10/22 03:33:07;;;;;;;6.70;1.42;;;11.40;99.90;;;;;;4967330;28;20038;-83
2023/10/22 03:35:35;;;;;;;7.28;1.25;;;11.40;99.90;;;;;;4962532;28;20115;-86
2023/10/22 03:38:02;;;;;;;5.60;1.05;;;11.40;99.90;;;;;;4969710;28;20620;-84
2023/10/22 03:40:28;;;;;;;6.75;1.40;;;11.40;99.90;;;;;;4966745;28;20058;-88
2023/10/22 03:42:53;;;;;;;3.72;1.00;;;11.60;99.90;;;;;;4970083;28;20419;-82
2023/10/22 03:45:19;;;;;;;5.32;1.48;;;11.50;99.90;;;;;;4966361;28;20041;-82
2023/10/22 03:47:44;;;;;;;6.20;2.00;;;11.50;99.90;;;;;;4970152;28;21052;-84
2023/10/22 03:50:10;;;;;;;5.57;1.23;;;11.50;99.90;;;;;;4968835;28;22454;-84
2023/10/22 03:52:36;;;;;;;3.67;1.08;;;11.60;99.90;;;;;;4969050;28;20035;-85
2023/10/22 03:55:01;;;;;;;5.35;1.00;;;11.50;99.90;;;;;;4968839;28;20027;-87
2023/10/22 03:57:27;;;;;;;4.82;1.00;;;11.70;99.90;;;;;;4973294;28;20130;-86
2023/10/22 03:59:52;;;;;;;4.07;1.10;;;11.50;99.90;;;;;;4965496;28;20031;-86
2023/10/22 04:02:18;;;;;;;3.65;1.00;;;;;;;;;;4970478;28;20039;-85
2023/10/22 04:04:44;;;;;;;6.80;0.88;;;11.50;99.90;;;;;;4968928;28;20038;-85
2023/10/22 04:07:11;;;;;;;5.07;1.10;;;11.50;99.90;;;;;;4968618;28;20042;-83
2023/10/22 04:09:37;;;;;;;5.40;1.17;;;11.60;99.90;;;;;;4970330;28;20030;-85
2023/10/22 04:12:03;;;;;;;6.55;1.45;;;11.60;99.90;;;;;;4967681;28;20492;-85
2023/10/22 04:14:28;;;;;;;8.50;1.20;;;11.60;99.90;;;;;;4969614;28;20063;-85
2023/10/22 04:16:54;;;;;;;6.38;1.40;;;11.50;99.90;;;;;;4973299;28;20035;-84
2023/10/22 04:19:20;;;;;;;4.50;1.15;;;11.50;99.90;;;;;;4973036;28;20034;-82
2023/10/22 04:21:45;;;;;;;5.15;1.40;;;11.50;99.90;;;;;;4976400;28;20074;-84
2023/10/22 04:24:11;;;;;;;9.25;1.40;;;11.50;99.90;;;;;;4957030;28;20475;-81
2023/10/22 04:26:37;;;;;;;5.35;0.90;;;11.80;99.90;;;;;;4984251;28;20085;-85
2023/10/22 04:29:02;;;;;;;7.93;1.13;;;11.50;99.90;;;;;;4972977;28;20165;-87
2023/10/22 04:31:28;;;;;;;6.43;1.13;;;11.50;99.90;;;;;;4962115;28;20035;-83
2023/10/22 04:33:54;;;;;;;5.45;1.27;;;12.60;99.90;;;;;;4971027;28;20326;-87
2023/10/22 04:36:22;;;;;;;4.50;1.00;;;11.80;99.90;;;;;;4974167;28;20490;-85
2023/10/22 04:38:48;;;;;;;5.47;1.05;;;11.50;99.90;;;;;;4972247;28;20030;-85
2023/10/22 04:41:14;;;;;;;7.22;1.13;;;11.60;99.90;;;;;;4969527;28;20045;-85
2023/10/22 04:43:39;;;;;;;4.78;1.20;;;11.50;99.90;;;;;;4974980;28;20055;-86
2023/10/22 04:46:05;;;;;;;7.00;1.25;;;11.50;99.90;;;;;;4964698;28;20387;-87
2023/10/22 04:48:32;;;;;;;6.25;1.00;;;11.50;99.90;;;;;;4963340;28;20038;-84
2023/10/22 04:51:00;;;;;;;9.70;1.58;;;11.50;99.90;;;;;;4970791;28;20130;-87
2023/10/22 04:53:25;;;;;;;2.90;1.00;;;11.30;99.90;;;;;;4968848;28;20492;-84
2023/10/22 04:55:58;;;;;;;6.88;1.20;;;11.50;99.90;;;;;;4974747;28;20038;-85
2023/10/22 04:58:24;;;;;;;9.10;1.25;;;11.50;99.90;;;;;;4974703;28;20108;-87
2023/10/22 05:00:50;;;;;;;3.85;1.23;;;13.00;99.90;;;;;;4969928;28;20030;-86
2023/10/22 05:03:16;;;;;;;4.32;0.93;;;11.60;99.90;;;;;;4967060;28;20031;-86
2023/10/22 05:05:42;;;;;;;5.38;1.02;;;;;;;;;;4972619;28;20555;-80
2023/10/22 05:08:09;;;;;;;3.50;1.20;;;;;;;;;;4970919;28;20058;-83
2023/10/22 05:10:41;;;;;;;4.72;1.20;;;11.50;99.90;;;;;;4970294;28;20029;-87
2023/10/22 05:13:10;;;;;;;5.22;1.42;;;12.60;99.90;;;;;;4972118;28;20574;-85
2023/10/22 05:15:36;;;;;;;5.35;1.13;;;11.50;99.90;;;;;;4973155;28;20027;-86
2023/10/22 05:18:07;;;;;;;8.32;1.15;;;11.50;99.90;;;;;;4971416;28;20039;-85
2023/10/22 05:20:33;;;;;;;5.95;0.98;;;11.50;99.90;;;;;;4972771;28;20023;-84
2023/10/22 05:22:58;;;;;;;4.88;0.93;;;12.50;99.90;;;;;;4970599;28;20039;-84
2023/10/22 05:25:24;;;;;;;6.28;1.10;;;11.70;99.90;;;;;;4968136;28;20030;-84
2023/10/22 05:27:50;;;;;;;5.22;0.95;;;11.50;99.90;;;;;;4968931;28;20378;-85
2023/10/22 05:30:15;;;;;;;5.55;1.00;;;12.30;99.90;;;;;;4971431;28;20039;-84
2023/10/22 05:32:41;;;;;;;5.25;1.25;;;11.50;99.90;;;;;;4970086;28;20117;-83
2023/10/22 05:35:07;;;;;;;4.40;1.10;;;11.50;99.90;;;;;;4970795;28;20023;-87
2023/10/22 05:37:33;;;;;;;6.82;1.20;;;11.50;99.90;;;;;;4977010;28;20022;-89
2023/10/22 05:39:59;;;;;;;6.57;0.90;;;11.40;99.90;;;;;;4974933;28;20635;-86
2023/10/22 05:42:25;;;;;;;5.82;1.10;;;11.40;99.90;;;;;;4976620;28;20120;-87
2023/10/22 05:44:51;;;;;;;3.67;1.05;;;11.40;99.90;;;;;;4973267;28;20065;-88
2023/10/22 05:47:17;;;;;;;6.45;1.20;;;12.10;99.90;;;;;;4973238;28;20023;-89
2023/10/22 05:49:44;;;;;;;7.47;1.25;;;11.30;99.90;;;;;;4973050;28;20223;-87
2023/10/22 05:52:10;;;;;;;3.95;1.00;;;11.60;99.90;;;;;;4983148;28;20042;-84
2023/10/22 05:54:36;;;;;;;6.15;1.30;;;11.80;99.90;;;;;;4982981;28;20042;-82
2023/10/22 05:57:01;;;;;;;7.20;1.95;;;12.00;99.90;;;;;;4988473;28;20150;-85
2023/10/22 05:59:27;;;;;;;7.40;1.33;;;11.30;99.90;;;;;;4987030;28;20027;-84
2023/10/22 06:01:53;;;;;;;5.15;1.17;;;11.30;99.90;;;;;;4978945;28;20523;-89
2023/10/22 06:04:18;;;;;;;6.63;1.63;;;12.50;99.90;;;;;;4970129;28;20089;-88
2023/10/22 06:06:44;;;;;;;5.53;1.25;;;;;;;;;;4978704;28;20114;-87
2023/10/22 06:09:12;;;;;;;4.75;1.10;;;11.30;99.90;;;;;;4975809;28;20074;-90
2023/10/22 06:11:40;;;;;;;3.97;1.10;;;11.30;99.90;;;;;;4972643;28;20130;-88
2023/10/22 06:14:06;;;;;;;6.15;1.17;;;11.20;99.90;;;;;;4971971;28;20023;-90
2023/10/22 06:16:32;;;;;;;7.00;1.17;;;11.20;99.90;;;;;;4966883;28;20139;-89
2023/10/22 06:18:58;;;;;;;8.73;1.63;;;12.90;99.90;;;;;;4964627;28;20031;-86
2023/10/22 06:21:24;;;;;;;7.25;1.25;;;11.30;99.90;;;;;;4971573;28;20023;-89
2023/10/22 06:23:50;;;;;;;9.00;1.70;;;11.30;99.90;;;;;;4977280;28;20038;-89
2023/10/22 06:26:16;;;;;;;8.38;1.30;;;11.20;99.90;;;;;;4963631;28;20026;-91
2023/10/22 06:28:42;;;;;;;8.07;2.78;;;;;;;;;;4968228;28;20045;-84
2023/10/22 06:31:13;;;;;;;26.77;11.32;;;11.30;99.90;;;;;;4971995;28;20038;-87
2023/10/22 06:33:40;;;;;;;12.15;5.53;;;11.50;99.90;;;;;;4977445;28;20846;-88
2023/10/22 06:36:17;;;;;;;14.82;4.65;;;11.50;99.90;;;;;;4968074;28;20032;-86
2023/10/22 06:38:44;;;;;;;19.13;7.63;;;11.30;99.90;;;;;;4980048;28;20487;-85
2023/10/22 06:41:17;;;;;;;9.85;2.20;;;11.30;99.90;;;;;;4981948;28;20038;-85
2023/10/22 06:43:43;;;;;;;11.93;3.90;;;11.30;99.90;;;;;;4980888;28;20031;-86
2023/10/22 06:46:13;;;;;;;46.38;20.38;;;11.30;99.90;;;;;;4985819;28;20062;-85
2023/10/22 06:48:44;;;;;;;27.07;9.63;;;;;;;;;;4985788;28;20034;-88
2023/10/22 06:51:29;;;;;;;16.45;6.03;;;11.30;99.90;;;;;;4984897;28;20132;-87
2023/10/22 06:53:55;;;;;;;36.88;18.70;;;11.50;99.90;;;;;;4983980;28;20050;-86
2023/10/22 06:56:23;;;;;;;12.40;4.88;;;;;;;;;;4985116;28;20027;-88
2023/10/22 06:58:52;;;;;;;7.15;1.73;;;;;;;;;;4985985;28;20031;-86
2023/10/22 07:01:29;;;;;;;7.97;1.52;;;11.40;99.90;;;;;;4985099;28;20502;-85
2023/10/22 07:04:04;;;;;;;5.70;1.63;;;11.40;99.90;;;;;;4985597;28;20101;-86
2023/10/22 07:06:38;;;;;;;5.00;1.45;;;11.40;99.90;;;;;;4995007;28;20346;-86
2023/10/22 07:09:17;;;;;;;;;;;;;;;;;;;;;
2023/10/22 07:11:46;;;;;;;9.55;1.80;;;11.40;99.90;;;;;;4985802;28;20082;-86
2023/10/22 07:14:12;;;;;;;5.53;1.40;;;11.80;99.90;;;;;;4984115;28;20094;-88
2023/10/22 07:16:40;;;;;;;3.13;1.30;;;11.50;99.90;;;;;;4985466;28;20137;-87
2023/10/22 07:19:06;;;;;;;12.48;2.05;;;11.50;99.90;;;;;;4983139;28;20018;-86
2023/10/22 07:21:32;;;;;;;5.22;1.50;;;;;;;;;;4982222;28;20030;-87
2023/10/22 07:23:58;;;;;;;5.13;1.60;;;;;;;;;;4982562;28;20030;-87
2023/10/22 07:26:31;;;;;;;9.70;1.75;;;11.50;99.90;;;;;;4976500;28;20046;-87
2023/10/22 07:29:09;;;;;;;;;;;;;;;;;;;;;
2023/10/22 07:31:35;;;;;;;6.22;1.20;;;;;;;;;;4982408;28;20555;-87
2023/10/22 07:34:01;;;;;;;6.65;1.30;;;11.50;99.90;;;;;;4982625;28;20026;-86
2023/10/22 07:36:27;;;;;;;10.82;1.60;;;;;;;;;;4990228;28;20046;-86
2023/10/22 07:38:53;;;;;;;9.63;1.13;;;10.40;99.90;;;;;;4989080;28;20019;-86
2023/10/22 07:41:41;;;;;;;7.45;1.50;;;11.60;99.90;;;;;;4981597;28;20026;-86
2023/10/22 07:44:10;;;;;;;5.80;1.13;;;11.60;99.90;;;;;;4981467;28;20076;-86
2023/10/22 07:46:37;;;;;;;8.30;1.35;;;;;;;;;;4990597;28;20033;-88
2023/10/22 07:49:06;;;;;;;9.18;1.35;;;11.70;99.90;;;;;;5002066;28;20081;-85
2023/10/22 07:51:34;;;;;;;6.78;1.45;;;;;;;;;;4989643;28;20050;-89
2023/10/22 07:54:03;;;;;;;3.45;1.13;;;11.80;99.90;;;;;;4979121;28;20439;-86
2023/10/22 07:56:32;;;;;;;6.05;1.63;;;11.90;99.90;;;;;;4979479;28;20529;-87
2023/10/22 07:58:58;;;;;;;7.18;1.60;;;12.00;99.90;;;;;;4980209;28;20023;-86
2023/10/22 08:01:23;;;;;;;8.88;1.58;;;11.90;99.90;;;;;;4979053;28;20030;-87
2023/10/22 08:03:50;;;;;;;7.03;1.58;;;12.20;99.90;;;;;;4977863;28;20062;-89
2023/10/22 08:06:28;;;;;;;6.00;1.50;;;12.30;99.90;;;;;;4975806;28;20024;-87
2023/10/22 08:08:59;;;;;;;7.80;1.55;;;12.20;99.90;;;;;;4969415;28;20475;-87
2023/10/22 08:11:25;;;;;;;6.80;1.50;;;12.30;99.90;;;;;;4975836;28;20035;-88
2023/10/22 08:13:53;;;;;;;6.85;1.77;;;12.60;99.90;;;;;;4979070;28;20505;-86
2023/10/22 08:16:19;;;;;;;9.60;1.77;;;12.40;99.90;;;;;;4974270;28;20053;-87
2023/10/22 08:19:36;;;;;;;;;;;;;;;;;;;;;
2023/10/22 08:22:26;;;;;;;4.95;1.48;;;12.70;99.90;;;;;;4859903;29;20109;-86
2023/10/22 08:24:51;;;;;;;6.27;1.23;;;12.70;99.90;;;;;;5000966;28;20033;-86
2023/10/22 08:27:17;;;;;;;6.60;1.40;;;;;;;;;;4987613;28;20026;-85
2023/10/22 08:29:43;;;;;;;4.13;1.13;;;12.80;99.90;;;;;;4990466;28;20103;-86
2023/10/22 08:32:09;;;;;;;6.00;1.45;;;;;;;;;;4990824;28;20090;-87
2023/10/22 08:34:35;;;;;;;6.80;1.60;;;13.10;99.90;;;;;;4991175;28;20026;-87
2023/10/22 08:37:06;;;;;;;7.80;1.77;;;13.10;99.90;;;;;;4987922;28;20034;-88
2023/10/22 08:40:12;;;;;;;5.35;1.40;;;13.20;99.90;;;;;;4978890;28;20034;-86
2023/10/22 08:42:53;;;;;;;6.78;1.33;;;13.30;99.90;;;;;;4915385;29;20032;-85
2023/10/22 08:45:22;;;;;;;7.32;1.52;;;13.40;99.90;;;;;;4917296;29;20047;-88
2023/10/22 08:47:48;;;;;;;11.52;1.88;;;13.20;99.90;;;;;;4975542;28;20105;-87
2023/10/22 08:50:19;;;;;;;7.72;1.52;;;13.40;99.90;;;;;;4976121;28;20042;-89
2023/10/22 08:52:50;;;;;;;8.48;1.98;;;13.50;99.90;;;;;;4976554;28;20030;-89
2023/10/22 08:55:58;;;;;;;7.75;2.22;;;13.50;99.90;;;;;;4975406;28;20023;-87
2023/10/22 08:58:24;;;;;;;4.95;1.35;;;;;;;;;;4974965;28;20025;-85
2023/10/22 09:00:50;;;;;;;11.73;1.85;;;13.60;99.90;;;;;;4960377;28;20050;-88
2023/10/22 09:03:20;;;;;;;9.68;1.73;;;13.50;99.90;;;;;;4977818;28;20034;-87
2023/10/22 09:05:47;;;;;;;7.82;1.60;;;13.60;99.90;;;;;;4985197;28;20082;-88
2023/10/22 09:08:36;;;;;;;12.60;1.90;;;13.50;99.90;;;;;;4961882;28;20027;-87
2023/10/22 09:11:24;;;;;;;10.13;2.25;;;13.30;99.90;;;;;;4980521;28;20065;-83
2023/10/22 09:13:50;;;;;;;7.97;1.35;;;13.50;99.90;;;;;;4984259;28;20559;-87
2023/10/22 09:16:29;;;;;;;7.90;1.50;;;13.80;99.90;;;;;;4983543;28;20054;-87
2023/10/22 09:18:56;;;;;;;11.00;1.67;;;13.70;99.90;;;;;;4983961;28;20042;-86
2023/10/22 09:21:21;;;;;;;9.40;1.50;;;13.80;99.90;;;;;;4984123;28;20042;-86
2023/10/22 09:24:04;;;;;;;7.68;1.70;;;13.80;99.90;;;;;;4981971;28;20031;-86
2023/10/22 09:26:49;;;;;;;9.70;1.88;;;13.90;99.90;;;;;;4981445;28;20491;-88
2023/10/22 09:29:17;;;;;;;8.23;1.75;;;13.90;99.90;;;;;;4981280;28;20034;-87
2023/10/22 09:31:57;;;;;;;6.03;1.50;;;14.00;99.90;;;;;;4985739;28;20492;-86
2023/10/22 09:34:34;;;;;;;7.83;1.30;;;14.10;99.90;;;;;;4981178;28;20029;-85
2023/10/22 09:37:00;;;;;;;8.88;1.40;;;;;;;;;;4972892;28;20109;-85
2023/10/22 09:39:43;;;;;;;10.27;1.63;;;14.10;99.90;;;;;;4976737;28;20046;-84
2023/10/22 09:42:11;;;;;;;8.27;2.17;;;14.20;99.90;;;;;;4993726;28;20478;-86
2023/10/22 09:44:38;;;;;;;7.93;1.40;;;15.40;99.90;;;;;;4984682;28;20423;-85
2023/10/22 09:47:06;;;;;;;9.77;1.83;;;14.30;99.90;;;;;;4990580;28;20471;-87
2023/10/22 09:49:37;;;;;;;10.20;1.83;;;14.50;99.90;;;;;;4980739;28;20161;-86
2023/10/22 09:52:09;;;;;;;9.63;1.52;;;14.30;99.90;;;;;;4976068;28;20037;-87
2023/10/22 09:54:49;;;;;;;;;;;;;;;;;;;;;
2023/10/22 09:57:22;;;;;;;9.45;2.38;;;14.70;99.90;;;;;;4974475;28;20122;-87
2023/10/22 09:59:48;;;;;;;6.78;2.33;;;;;;;;;;4986493;28;20484;-85
2023/10/22 10:02:18;;;;;;;6.70;1.38;;;15.10;99.90;;;;;;4980603;28;20026;-87
2023/10/22 10:04:44;;;;;;;9.90;2.47;;;;;;;;;;4978828;28;20030;-85
2023/10/22 10:07:10;;;;;;;10.57;2.20;;;15.30;99.90;;;;;;4980451;28;20038;-87
2023/10/22 10:09:40;;;;;;;7.88;2.15;;;15.40;99.90;;;;;;4981145;28;20031;-88
2023/10/22 10:12:19;;;;;;;;;;;;;;;;;;;;;
2023/10/22 10:14:50;;;;;;;9.88;2.08;;;15.20;99.90;;;;;;4983544;28;20106;-84
2023/10/22 10:22:42;;;;;;;5.43;1.65;;;15.00;99.90;;;;;;4992163;28;20038;-90
2023/10/22 10:25:30;;;;;;;10.23;1.90;;;15.00;99.90;;;;;;4992238;28;20030;-88
2023/10/22 10:28:03;;;;;;;10.77;2.25;;;15.10;99.90;;;;;;4992152;28;21100;-88
2023/10/22 10:30:29;;;;;;;10.85;1.58;;;;;;;;;;4960267;28;20556;-89
2023/10/22 10:32:55;;;;;;;9.02;1.73;;;;;;;;;;4991008;28;20041;-87
2023/10/22 10:35:21;;;;;;;6.72;1.42;;;15.20;99.90;;;;;;4978553;28;20026;-86
2023/10/22 10:38:15;;;;;;;10.68;2.00;;;15.40;99.90;;;;;;4987221;28;20102;-88
2023/10/22 10:40:44;;;;;;;12.32;2.13;;;;;;;;;;4975226;28;20027;-88
2023/10/22 10:43:10;;;;;;;11.85;1.80;;;;;;;;;;4975372;28;20034;-87
2023/10/22 10:45:43;;;;;;;11.00;2.00;;;15.30;99.90;;;;;;4971072;28;20035;-87
2023/10/22 10:48:42;;;;;;;10.25;1.88;;;16.10;99.90;;;;;;4983836;28;20062;-87
2023/10/22 10:51:18;;;;;;;10.50;2.00;;;15.20;99.90;;;;;;4950592;28;20035;-88
2023/10/22 10:54:24;;;;;;;6.50;1.67;;;15.20;99.90;;;;;;4983405;28;20056;-87
2023/10/22 10:56:50;;;;;;;8.13;1.70;;;;;;;;;;4984509;28;20054;-90
2023/10/22 10:59:36;;;;;;;6.57;1.77;;;15.40;99.90;;;;;;4978435;28;20504;-89
2023/10/22 11:02:10;;;;;;;6.65;1.70;;;15.50;99.90;;;;;;4993468;28;20042;-89
2023/10/22 11:04:38;;;;;;;11.48;1.92;;;15.60;99.90;;;;;;4979392;28;20041;-89
2023/10/22 11:07:05;;;;;;;5.53;1.63;;;15.70;99.90;;;;;;4963587;28;20034;-88
2023/10/22 11:09:33;;;;;;;10.43;1.58;;;15.70;99.90;;;;;;4980162;28;20030;-87
2023/10/22 11:12:04;;;;;;;10.18;2.00;;;15.70;99.90;;;;;;5002308;28;20052;-88
2023/10/22 11:14:35;;;;;;;9.43;2.13;;;15.70;99.90;;;;;;4984367;28;20167;-89
2023/10/22 11:17:02;;;;;;;8.23;1.40;;;;;;;;;;4974048;28;20014;-88
2023/10/22 11:19:29;;;;;;;9.00;1.75;;;15.70;99.90;;;;;;4995619;28;20058;-89
2023/10/22 11:21:56;;;;;;;14.57;2.97;;;15.70;99.90;;;;;;4973640;28;20035;-86
2023/10/22 11:24:30;;;;;;;11.88;1.98;;;15.80;99.90;;;;;;4980171;28;20053;-87
2023/10/22 11:27:04;;;;;;;7.95;1.65;;;15.90;99.90;;;;;;4992043;28;20042;-87
2023/10/22 11:29:39;;;;;;;7.20;1.83;;;15.90;99.90;;;;;;4986152;28;20030;-86
2023/10/22 11:32:11;;;;;;;11.77;1.85;;;16.70;99.90;;;;;;4967896;28;20056;-87
2023/10/22 11:35:03;;;;;;;7.13;1.80;;;16.10;99.90;;;;;;4979978;28;20027;-89
2023/10/22 11:37:39;;;;;;;8.18;1.77;;;16.00;99.90;;;;;;4965220;28;20086;-87
2023/10/22 11:40:28;;;;;;;7.03;1.48;;;16.30;99.90;;;;;;4965235;28;20061;-89
2023/10/22 11:42:55;;;;;;;6.60;1.50;;;;;;;;;;4979222;28;20034;-88
2023/10/22 11:45:21;;;;;;;7.65;1.42;;;;;;;;;;4985324;28;20106;-89
2023/10/22 11:47:47;;;;;;;11.77;2.08;;;;;;;;;;4981734;28;20058;-87
2023/10/22 11:50:15;;;;;;;7.47;1.38;;;17.00;99.90;;;;;;5000742;28;20055;-89
2023/10/22 11:52:51;;;;;;;5.85;1.60;;;16.90;99.90;;;;;;4983809;28;20034;-88
2023/10/22 11:55:17;;;;;;;7.03;1.45;;;;;;;;;;4972496;28;20033;-89
2023/10/22 11:57:44;;;;;;;6.72;1.70;;;17.00;99.90;;;;;;4992482;28;20027;-88
2023/10/22 12:00:10;;;;;;;7.50;1.80;;;16.90;99.90;;;;;;4996631;28;20038;-88
2023/10/22 12:02:36;;;;;;;7.38;1.38;;;17.10;99.90;;;;;;4987751;28;20039;-88
2023/10/22 12:05:03;;;;;;;6.82;1.38;;;15.50;99.90;;;;;;4972703;28;20031;-87
2023/10/22 12:07:29;;;;;;;3.53;1.33;;;;;;;;;;4984838;28;20031;-89
2023/10/22 12:09:55;;;;;;;8.90;1.40;;;;;;;;;;4998131;28;21433;-88
2023/10/22 12:12:23;;;;;;;7.88;1.83;;;;;;;;;;4966709;28;20117;-88
2023/10/22 12:14:49;;;;;;;9.60;1.48;;;16.70;99.90;;;;;;4959106;28;20026;-89
2023/10/22 12:17:17;;;;;;;5.10;1.52;;;16.70;99.90;;;;;;4979671;28;20022;-90
2023/10/22 12:19:43;;;;;;;6.15;1.55;;;;;;;;;;4980258;28;20031;-90
2023/10/22 12:22:10;;;;;;;6.28;1.20;;;16.60;99.90;;;;;;4981201;28;20117;-89
2023/10/22 12:24:36;;;;;;;7.40;1.48;;;;;;;;;;4983744;28;20042;-89
2023/10/22 12:27:02;;;;;;;8.85;1.85;;;;;;;;;;4981161;28;20034;-88
2023/10/22 12:29:28;;;;;;;6.45;1.58;;;;;;;;;;4979706;28;20057;-89
2023/10/22 12:31:54;;;;;;;7.10;1.35;;;;;;;;;;4979655;28;20039;-90
2023/10/22 12:34:20;;;;;;;5.68;1.20;;;;;;;;;;4978535;28;20027;-88
2023/10/22 12:36:46;;;;;;;7.05;1.83;;;;;;;;;;4976732;28;20117;-88
2023/10/22 12:39:12;;;;;;;5.47;1.17;;;16.30;99.90;;;;;;4974954;28;20034;-89
2023/10/22 12:41:41;;;;;;;6.60;1.23;;;;;;;;;;4976612;28;20369;-89
2023/10/22 12:44:07;;;;;;;5.53;1.25;;;;;;;;;;4965210;28;20105;-89
2023/10/22 12:46:33;;;;;;;4.68;1.20;;;;;;;;;;4974302;28;20027;-87
2023/10/22 12:48:59;;;;;;;5.75;1.27;;;;;;;;;;4979154;28;20465;-88
2023/10/22 12:51:28;;;;;;;5.78;1.20;;;16.10;99.90;;;;;;4978618;28;20023;-89
2023/10/22 12:53:54;;;;;;;5.75;1.40;;;;;;;;;;4989269;28;20038;-87
2023/10/22 12:56:20;;;;;;;4.30;1.30;;;;;;;;;;4992072;28;20058;-87
2023/10/22 12:58:47;;;;;;;6.93;1.23;;;;;;;;;;4971920;28;20014;-89
2023/10/22 13:01:15;;;;;;;8.55;2.28;;;;;;;;;;4990147;28;20026;-89
2023/10/22 13:03:41;;;;;;;7.85;2.53;;;;;;;;;;4977061;28;20037;-90
2023/10/22 13:06:09;;;;;;;6.40;1.45;;;;;;;;;;4978772;28;20022;-89
2023/10/22 13:08:38;;;;;;;5.80;1.50;;;;;;;;;;4977713;28;20031;-88
2023/10/22 13:11:06;;;;;;;5.40;1.48;;;;;;;;;;4967891;28;20062;-88
2023/10/22 13:13:38;;;;;;;8.50;2.17;;;16.00;99.90;;;;;;4971020;28;20027;-91
2023/10/22 13:16:07;;;;;;;6.25;1.10;;;16.10;99.90;;;;;;4974367;28;20031;-89
2023/10/22 13:18:34;;;;;;;6.20;2.10;;;;;;;;;;4979112;28;20027;-88
2023/10/22 13:21:00;;;;;;;7.72;2.08;;;;;;;;;;4976330;28;20043;-87
2023/10/22 13:23:26;;;;;;;5.75;1.27;;;;;;;;;;4977751;28;20030;-88